createdAt,value
2019-02-19T00:00:01.814Z,91.64
2019-02-19T00:02:30.546Z,91.85
2019-02-19T00:04:59.281Z,91.87
2019-02-19T00:07:28.155Z,91.68
2019-02-19T00:09:56.884Z,91.76
2019-02-19T00:12:25.630Z,91.86
2019-02-19T00:14:54.499Z,91.95
2019-02-19T00:17:23.206Z,91.87
2019-02-19T00:19:51.935Z,91.88
2019-02-19T00:22:20.731Z,91.27
2019-02-19T00:24:49.453Z,90.72
2019-02-19T00:27:18.336Z,90.80
2019-02-19T00:29:47.116Z,91.21
2019-02-19T00:32:15.866Z,91.31
2019-02-19T00:34:44.584Z,91.46
2019-02-19T00:37:13.465Z,91.74
2019-02-19T00:39:42.190Z,91.78
2019-02-19T00:42:10.913Z,91.98
2019-02-19T00:44:39.680Z,92.23
2019-02-19T00:47:08.401Z,92.29
2019-02-19T00:49:37.126Z,92.48
2019-02-19T00:52:05.899Z,93.24
2019-02-19T00:54:34.639Z,93.11
2019-02-19T00:57:03.367Z,92.82
2019-02-19T00:59:32.238Z,92.60
2019-02-19T01:02:01.381Z,92.68
2019-02-19T01:04:30.103Z,92.75
2019-02-19T01:06:59.021Z,93.33
2019-02-19T01:09:28.123Z,93.42
2019-02-19T01:11:56.855Z,93.67
2019-02-19T01:14:25.624Z,93.62
2019-02-19T01:16:54.353Z,93.53
2019-02-19T01:19:23.078Z,93.23
2019-02-19T01:21:51.860Z,93.25
2019-02-19T01:24:20.594Z,93.27
2019-02-19T01:26:49.322Z,93.24
2019-02-19T01:29:18.203Z,93.26
2019-02-19T01:31:46.938Z,93.17
2019-02-19T01:34:15.671Z,92.83
2019-02-19T01:36:44.553Z,92.73
2019-02-19T01:39:13.273Z,92.60
2019-02-19T01:41:42.020Z,92.52
2019-02-19T01:44:11.182Z,92.32
2019-02-19T01:46:39.915Z,92.20
2019-02-19T01:49:08.946Z,92.14
2019-02-19T01:51:37.816Z,92.20
2019-02-19T01:54:06.545Z,92.01
2019-02-19T01:56:35.270Z,91.75
2019-02-19T01:59:04.168Z,91.79
2019-02-19T02:01:32.890Z,91.82
2019-02-19T02:04:01.614Z,91.67
2019-02-19T02:06:30.466Z,91.25
2019-02-19T02:08:59.200Z,90.68
2019-02-19T02:11:27.924Z,90.22
2019-02-19T02:13:56.778Z,89.98
2019-02-19T02:16:25.509Z,90.10
2019-02-19T02:18:54.229Z,89.97
2019-02-19T02:21:23.075Z,88.04
2019-02-19T02:23:51.808Z,86.63
2019-02-19T02:26:20.531Z,85.84
2019-02-19T02:28:49.672Z,85.33
2019-02-19T02:31:18.474Z,85.68
2019-02-19T02:33:47.203Z,87.45
2019-02-19T02:36:15.968Z,88.78
2019-02-19T02:38:44.700Z,89.51
2019-02-19T02:41:13.415Z,89.84
2019-02-19T02:43:42.614Z,90.08
2019-02-19T02:46:11.354Z,89.93
2019-02-19T02:48:40.084Z,90.74
2019-02-19T02:51:08.968Z,89.95
2019-02-19T02:53:37.699Z,90.29
2019-02-19T02:56:06.435Z,90.47
2019-02-19T02:58:35.321Z,91.23
2019-02-19T03:01:04.063Z,91.63
2019-02-19T03:03:32.785Z,91.32
2019-02-19T03:06:09.669Z,91.50
2019-02-19T03:08:38.407Z,92.22
2019-02-19T03:11:07.136Z,92.12
2019-02-19T03:13:36.037Z,91.63
2019-02-19T03:16:04.770Z,91.31
2019-02-19T03:18:33.492Z,91.19
2019-02-19T03:21:02.373Z,90.87
2019-02-19T03:23:31.102Z,90.85
2019-02-19T03:25:59.833Z,91.14
2019-02-19T03:28:28.627Z,91.35
2019-02-19T03:30:57.364Z,91.68
2019-02-19T03:33:26.131Z,92.36
2019-02-19T03:35:55.033Z,92.72
2019-02-19T03:38:24.161Z,93.03
2019-02-19T03:40:52.876Z,93.00
2019-02-19T03:43:21.681Z,93.04
2019-02-19T03:45:50.413Z,93.20
2019-02-19T03:48:19.145Z,93.49
2019-02-19T03:50:48.390Z,93.60
2019-02-19T03:53:17.204Z,93.68
2019-02-19T03:55:45.944Z,93.70
2019-02-19T03:58:15.450Z,93.58
2019-02-19T04:00:44.271Z,93.62
2019-02-19T04:03:13.138Z,93.21
2019-02-19T04:05:41.888Z,92.64
2019-02-19T04:08:10.618Z,92.76
2019-02-19T04:10:39.367Z,93.09
2019-02-19T04:13:08.128Z,93.10
2019-02-19T04:15:36.954Z,92.93
2019-02-19T04:18:05.689Z,92.59
2019-02-19T04:20:34.492Z,91.60
2019-02-19T04:23:03.240Z,91.87
2019-02-19T04:25:31.963Z,92.56
2019-02-19T04:28:01.199Z,92.59
2019-02-19T04:30:29.926Z,92.80
2019-02-19T04:32:58.648Z,93.04
2019-02-19T04:35:28.011Z,93.23
2019-02-19T04:37:56.734Z,93.53
2019-02-19T04:40:25.463Z,93.96
2019-02-19T04:42:54.330Z,94.07
2019-02-19T04:45:23.061Z,94.07
2019-02-19T04:47:51.788Z,94.54
2019-02-19T04:50:20.685Z,94.47
2019-02-19T04:52:49.420Z,94.91
2019-02-19T04:55:18.160Z,95.01
2019-02-19T04:57:47.405Z,94.80
2019-02-19T05:00:16.128Z,94.70
2019-02-19T05:02:44.858Z,94.05
2019-02-19T05:05:13.763Z,93.00
2019-02-19T05:07:42.495Z,93.17
2019-02-19T05:10:11.228Z,93.52
2019-02-19T05:12:40.327Z,93.90
2019-02-19T05:15:11.262Z,94.08
2019-02-19T05:17:39.994Z,94.13
2019-02-19T05:20:09.663Z,94.31
2019-02-19T05:22:38.398Z,94.41
2019-02-19T05:25:08.241Z,94.48
2019-02-19T05:27:37.022Z,94.86
2019-02-19T05:30:08.939Z,95.11
2019-02-19T05:32:37.672Z,95.13
2019-02-19T05:35:07.839Z,95.11
2019-02-19T05:37:36.620Z,95.10
2019-02-19T05:40:07.937Z,94.85
2019-02-19T05:42:36.745Z,94.30
2019-02-19T05:45:08.386Z,93.69
2019-02-19T05:47:37.116Z,93.70
2019-02-19T05:50:08.214Z,94.12
2019-02-19T05:52:36.945Z,94.36
2019-02-19T05:55:07.688Z,94.21
2019-02-19T05:57:36.578Z,93.91
2019-02-19T06:00:09.154Z,93.66
2019-02-19T06:02:37.885Z,92.66
2019-02-19T06:05:08.566Z,91.94
2019-02-19T06:07:37.308Z,91.60
2019-02-19T06:10:09.319Z,91.19
2019-02-19T06:12:38.100Z,90.78
2019-02-19T06:15:09.435Z,90.05
2019-02-19T06:17:38.178Z,89.37
2019-02-19T06:20:08.083Z,88.78
2019-02-19T06:22:36.832Z,88.41
2019-02-19T06:25:07.809Z,88.17
2019-02-19T06:27:36.634Z,87.21
2019-02-19T06:30:08.287Z,86.25
2019-02-19T06:32:37.011Z,85.74
2019-02-19T06:35:07.101Z,85.34
2019-02-19T06:37:35.834Z,85.35
2019-02-19T06:40:10.004Z,85.55
2019-02-19T06:42:38.985Z,84.91
2019-02-19T06:45:07.717Z,84.78
2019-02-19T06:47:36.457Z,83.27
2019-02-19T06:50:06.151Z,82.90
2019-02-19T06:52:34.896Z,81.27
2019-02-19T06:55:03.622Z,79.97
2019-02-19T06:57:32.510Z,78.56
2019-02-19T07:00:01.238Z,77.05
2019-02-19T07:02:34.323Z,77.02
2019-02-19T07:05:03.918Z,75.57
2019-02-19T07:07:32.645Z,74.63
2019-02-19T07:10:01.370Z,74.96
2019-02-19T07:12:30.639Z,74.19
2019-02-19T07:14:59.346Z,72.22
2019-02-19T07:17:28.068Z,71.31
2019-02-19T07:19:56.927Z,71.19
2019-02-19T07:22:25.651Z,67.03
2019-02-19T07:24:54.383Z,64.80
2019-02-19T07:27:23.281Z,64.88
2019-02-19T07:29:52.011Z,65.60
2019-02-19T07:32:20.735Z,65.96
2019-02-19T07:34:49.637Z,65.43
2019-02-19T07:37:18.361Z,63.06
2019-02-19T07:39:47.091Z,63.47
2019-02-19T07:42:15.916Z,60.63
2019-02-19T07:44:44.634Z,62.25
2019-02-19T07:47:13.357Z,62.74
2019-02-19T07:49:42.536Z,62.10
2019-02-19T07:52:11.278Z,61.72
2019-02-19T07:54:40.007Z,63.44
2019-02-19T07:57:08.807Z,61.88
2019-02-19T07:59:37.543Z,62.10
2019-02-19T08:02:06.275Z,60.69
2019-02-19T08:04:35.052Z,60.62
2019-02-19T08:07:03.786Z,59.38
2019-02-19T08:09:32.512Z,60.28
2019-02-19T08:12:01.320Z,58.99
2019-02-19T08:14:30.037Z,61.05
2019-02-19T08:16:58.780Z,61.86
2019-02-19T08:19:27.640Z,61.46
2019-02-19T08:21:56.379Z,60.84
2019-02-19T08:24:25.120Z,60.74
2019-02-19T08:26:54.150Z,60.66
2019-02-19T08:29:22.883Z,58.62
2019-02-19T08:31:51.618Z,61.06
2019-02-19T08:34:20.392Z,59.57
2019-02-19T08:36:49.160Z,59.18
2019-02-19T08:39:17.890Z,59.00
2019-02-19T08:41:50.159Z,59.33
2019-02-19T08:44:18.963Z,60.40
2019-02-19T08:46:47.690Z,56.55
2019-02-19T08:49:16.508Z,54.58
2019-02-19T08:51:45.249Z,53.67
2019-02-19T08:54:13.985Z,55.52
2019-02-19T08:56:42.857Z,55.36
2019-02-19T08:59:11.588Z,54.34
2019-02-19T09:01:40.307Z,55.35
2019-02-19T09:04:09.198Z,53.79
2019-02-19T09:06:37.930Z,52.26
2019-02-19T09:09:07.064Z,52.87
2019-02-19T09:11:35.950Z,53.12
2019-02-19T09:14:04.678Z,52.96
2019-02-19T09:16:33.407Z,51.16
2019-02-19T09:19:02.192Z,50.81
2019-02-19T09:21:30.924Z,50.20
2019-02-19T09:23:59.650Z,51.38
2019-02-19T09:26:28.847Z,50.72
2019-02-19T09:28:57.576Z,51.32
2019-02-19T09:31:26.297Z,49.98
2019-02-19T09:33:56.556Z,50.42
2019-02-19T09:36:26.854Z,47.33
2019-02-19T09:38:55.599Z,50.30
2019-02-19T09:41:24.374Z,49.22
2019-02-19T09:43:53.120Z,49.88
2019-02-19T09:46:22.035Z,48.19
2019-02-19T09:48:51.016Z,49.16
2019-02-19T09:51:19.753Z,47.87
2019-02-19T09:53:48.501Z,47.39
2019-02-19T09:56:17.667Z,46.81
2019-02-19T09:58:46.371Z,49.37
2019-02-19T10:01:15.123Z,47.25
2019-02-19T10:03:46.291Z,47.06
2019-02-19T10:06:15.025Z,46.97
2019-02-19T10:08:43.764Z,45.04
2019-02-19T10:11:12.754Z,46.19
2019-02-19T10:13:41.495Z,45.32
2019-02-19T10:16:10.236Z,45.69
2019-02-19T10:18:39.031Z,46.37
2019-02-19T10:21:07.769Z,45.34
2019-02-19T10:23:36.503Z,44.98
2019-02-19T10:26:06.835Z,44.22
2019-02-19T10:28:35.577Z,41.82
2019-02-19T10:31:04.308Z,43.26
2019-02-19T10:33:33.211Z,43.14
2019-02-19T10:36:01.936Z,43.96
2019-02-19T10:38:30.678Z,42.80
2019-02-19T10:40:59.447Z,44.58
2019-02-19T10:43:28.187Z,43.20
2019-02-19T10:45:56.924Z,41.04
2019-02-19T10:48:25.794Z,41.21
2019-02-19T10:50:54.522Z,43.86
2019-02-19T10:53:23.257Z,44.03
2019-02-19T10:55:52.409Z,42.78
2019-02-19T10:58:23.166Z,39.80
2019-02-19T11:00:51.599Z,41.17
2019-02-19T11:03:20.814Z,39.60
2019-02-19T11:05:49.555Z,40.46
2019-02-19T11:08:18.286Z,41.44
2019-02-19T11:10:47.250Z,40.54
2019-02-19T11:13:16.002Z,39.70
2019-02-19T11:15:44.746Z,39.73
2019-02-19T11:18:13.552Z,40.38
2019-02-19T11:20:42.293Z,40.01
2019-02-19T11:23:11.013Z,42.48
2019-02-19T11:25:39.819Z,40.05
2019-02-19T11:28:08.556Z,40.68
2019-02-19T11:30:37.294Z,39.51
2019-02-19T11:33:06.842Z,41.89
2019-02-19T11:35:35.580Z,39.99
2019-02-19T11:38:04.309Z,41.19
2019-02-19T11:40:33.460Z,38.53
2019-02-19T11:43:02.218Z,42.34
2019-02-19T11:45:30.948Z,42.25
2019-02-19T11:47:59.738Z,39.86
2019-02-19T11:50:28.468Z,41.22
2019-02-19T11:52:57.196Z,40.48
2019-02-19T11:55:26.090Z,39.71
2019-02-19T11:57:57.285Z,40.02
2019-02-19T12:00:40.041Z,39.37
2019-02-19T12:03:08.791Z,38.19
2019-02-19T12:05:37.520Z,38.20
2019-02-19T12:08:06.411Z,38.90
2019-02-19T12:10:35.143Z,39.95
2019-02-19T12:13:03.863Z,39.72
2019-02-19T12:15:35.228Z,40.37
2019-02-19T12:18:03.289Z,39.46
2019-02-19T12:20:32.023Z,40.47
2019-02-19T12:23:00.798Z,39.10
2019-02-19T12:25:29.526Z,39.05
2019-02-19T12:27:58.259Z,41.92
2019-02-19T12:30:27.061Z,40.78
2019-02-19T12:32:55.799Z,40.08
2019-02-19T12:35:24.522Z,42.30
2019-02-19T12:37:53.300Z,40.99
2019-02-19T12:40:22.026Z,41.25
2019-02-19T12:42:50.799Z,40.99
2019-02-19T12:45:19.585Z,39.87
2019-02-19T12:47:48.317Z,37.91
2019-02-19T12:50:18.449Z,39.90
2019-02-19T12:52:47.397Z,37.80
2019-02-19T12:55:16.129Z,39.39
2019-02-19T12:57:44.870Z,39.65
2019-02-19T13:00:19.121Z,40.97
2019-02-19T13:02:47.857Z,39.30
2019-02-19T13:05:16.896Z,40.13
2019-02-19T13:07:47.038Z,41.00
2019-02-19T13:10:15.980Z,39.57
2019-02-19T13:12:44.719Z,39.84
2019-02-19T13:15:15.695Z,39.11
2019-02-19T13:17:44.437Z,39.09
2019-02-19T13:20:14.657Z,40.76
2019-02-19T13:22:43.470Z,40.14
2019-02-19T13:25:12.601Z,40.08
2019-02-19T13:27:41.353Z,39.91
2019-02-19T13:30:18.457Z,39.42
2019-02-19T13:32:47.195Z,40.67
2019-02-19T13:35:15.928Z,39.62
2019-02-19T13:37:44.889Z,42.53
2019-02-19T13:40:20.928Z,40.27
2019-02-19T13:42:49.790Z,40.44
2019-02-19T13:45:18.528Z,39.86
2019-02-19T13:47:47.256Z,39.99
2019-02-19T13:50:21.640Z,38.35
2019-02-19T13:52:51.936Z,39.36
2019-02-19T13:55:22.236Z,39.78
2019-02-19T13:57:51.038Z,41.06
2019-02-19T14:00:24.345Z,44.04
2019-02-19T14:02:53.379Z,43.03
2019-02-19T14:05:22.266Z,42.16
2019-02-19T14:07:51.025Z,41.92
2019-02-19T14:10:19.757Z,42.54
2019-02-19T14:12:48.522Z,43.50
2019-02-19T14:15:18.825Z,43.28
2019-02-19T14:17:47.555Z,42.31
2019-02-19T14:20:23.975Z,43.00
2019-02-19T14:22:57.025Z,44.07
2019-02-19T14:25:27.331Z,43.85
2019-02-19T14:28:00.416Z,44.04
2019-02-19T14:30:42.741Z,43.24
2019-02-19T14:33:28.441Z,44.08
2019-02-19T14:36:01.470Z,45.27
2019-02-19T14:38:50.223Z,43.82
2019-02-19T14:41:20.535Z,44.47
2019-02-19T14:43:56.969Z,44.97
2019-02-19T14:46:27.268Z,45.72
2019-02-19T14:49:14.111Z,45.40
2019-02-19T14:51:53.308Z,43.81
2019-02-19T14:54:24.042Z,46.30
2019-02-19T14:56:57.635Z,46.48
2019-02-19T14:59:31.051Z,47.49
2019-02-19T15:02:01.360Z,48.62
2019-02-19T15:04:43.634Z,48.19
2019-02-19T15:07:13.945Z,48.41
2019-02-19T15:09:47.201Z,48.29
2019-02-19T15:12:30.204Z,47.96
2019-02-19T15:15:18.618Z,49.53
2019-02-19T15:17:51.737Z,49.56
2019-02-19T15:20:30.956Z,51.12
2019-02-19T15:23:01.444Z,53.54
2019-02-19T15:25:48.307Z,54.92
2019-02-19T15:28:36.753Z,55.74
2019-02-19T15:31:07.069Z,55.17
2019-02-19T15:33:40.545Z,55.40
2019-02-19T15:36:29.462Z,55.74
2019-02-19T15:38:59.771Z,56.13
2019-02-19T15:41:32.812Z,55.98
2019-02-19T15:44:06.444Z,56.52
2019-02-19T15:46:48.935Z,57.08
2019-02-19T15:49:31.155Z,57.85
2019-02-19T15:52:13.749Z,58.22
2019-02-19T15:55:00.308Z,59.21
2019-02-19T15:57:30.754Z,60.74
2019-02-19T16:00:19.703Z,61.53
2019-02-19T16:02:50.003Z,63.29
2019-02-19T16:05:32.730Z,62.79
2019-02-19T16:08:06.076Z,63.05
2019-02-19T16:10:36.382Z,63.01
2019-02-19T16:13:12.754Z,64.27
2019-02-19T16:15:55.405Z,63.82
2019-02-19T16:18:40.972Z,65.08
2019-02-19T16:21:11.282Z,65.34
2019-02-19T16:23:41.569Z,66.38
2019-02-19T16:26:28.489Z,67.81
2019-02-19T16:28:58.799Z,68.30
2019-02-19T16:31:38.441Z,68.62
2019-02-19T16:34:24.032Z,69.21
2019-02-19T16:37:13.249Z,70.39
2019-02-19T16:39:46.506Z,70.98
2019-02-19T16:42:29.059Z,70.44
2019-02-19T16:45:11.348Z,71.01
2019-02-19T16:47:44.800Z,70.98
2019-02-19T16:50:20.853Z,71.67
2019-02-19T16:52:57.077Z,72.18
2019-02-19T16:55:33.508Z,73.02
2019-02-19T16:58:15.731Z,73.70
2019-02-19T17:00:52.034Z,74.08
2019-02-19T17:03:25.207Z,73.92
2019-02-19T17:05:58.214Z,73.92
2019-02-19T17:08:37.716Z,73.92
2019-02-19T17:11:16.801Z,73.31
2019-02-19T17:13:47.468Z,73.52
2019-02-19T17:16:36.172Z,73.97
2019-02-19T17:19:15.246Z,74.57
2019-02-19T17:21:54.196Z,74.47
2019-02-19T17:24:41.122Z,74.61
2019-02-19T17:27:11.425Z,75.18
2019-02-19T17:29:53.798Z,76.47
2019-02-19T17:32:26.937Z,77.03
2019-02-19T17:35:00.491Z,76.78
2019-02-19T17:37:30.789Z,76.62
2019-02-19T17:40:06.852Z,76.48
2019-02-19T17:42:37.155Z,76.10
2019-02-19T17:45:20.060Z,75.94
2019-02-19T17:47:56.438Z,76.26
2019-02-19T17:50:38.143Z,76.43
2019-02-19T17:53:01.698Z,76.64
2019-02-19T17:55:32.005Z,76.51
2019-02-19T17:58:08.256Z,76.92
2019-02-19T18:00:44.344Z,76.61
2019-02-19T18:03:20.712Z,76.43
2019-02-19T18:05:51.009Z,76.41
2019-02-19T18:08:21.320Z,76.16
2019-02-19T18:11:00.689Z,76.11
2019-02-19T18:13:40.007Z,76.03
2019-02-19T18:16:13.431Z,75.77
2019-02-19T18:18:46.950Z,76.07
2019-02-19T18:21:15.688Z,76.20
2019-02-19T18:23:44.650Z,76.07
2019-02-19T18:26:13.399Z,76.14
2019-02-19T18:28:42.176Z,76.48
2019-02-19T18:31:11.957Z,76.79
2019-02-19T18:33:40.697Z,76.80
2019-02-19T18:36:09.426Z,76.87
2019-02-19T18:38:38.195Z,76.23
2019-02-19T18:41:07.044Z,76.04
2019-02-19T18:43:35.773Z,76.22
2019-02-19T18:46:04.555Z,76.07
2019-02-19T18:48:33.282Z,76.09
2019-02-19T18:51:02.037Z,75.94
2019-02-19T18:53:30.897Z,75.36
2019-02-19T18:55:59.620Z,74.91
2019-02-19T18:58:28.347Z,75.09
2019-02-19T19:00:57.118Z,75.42
2019-02-19T19:03:25.845Z,75.48
2019-02-19T19:05:54.583Z,75.53
2019-02-19T19:08:23.486Z,75.39
2019-02-19T19:10:52.244Z,75.29
2019-02-19T19:13:20.975Z,75.02
2019-02-19T19:15:50.131Z,75.10
2019-02-19T19:18:19.397Z,74.77
2019-02-19T19:20:48.295Z,74.63
2019-02-19T19:23:17.059Z,74.79
2019-02-19T19:25:45.797Z,74.93
2019-02-19T19:28:14.562Z,75.06
2019-02-19T19:30:43.363Z,75.23
2019-02-19T19:33:12.094Z,75.14
2019-02-19T19:35:40.929Z,75.42
2019-02-19T19:38:09.843Z,75.85
2019-02-19T19:40:38.575Z,76.01
2019-02-19T19:43:07.311Z,76.28
2019-02-19T19:45:36.094Z,76.33
2019-02-19T19:48:04.826Z,76.28
2019-02-19T19:50:33.669Z,75.72
2019-02-19T19:53:04.152Z,75.66
2019-02-19T19:55:32.884Z,75.85
2019-02-19T19:58:01.637Z,75.95
2019-02-19T20:00:30.910Z,76.18
2019-02-19T20:02:59.644Z,76.20
2019-02-19T20:05:28.379Z,76.36
2019-02-19T20:07:57.558Z,76.72
2019-02-19T20:10:26.293Z,76.96
2019-02-19T20:12:55.024Z,77.04
2019-02-19T20:15:24.186Z,77.58
2019-02-19T20:17:52.914Z,76.77
2019-02-19T20:20:21.640Z,75.13
2019-02-19T20:22:50.527Z,75.83
2019-02-19T20:25:19.251Z,77.79
2019-02-19T20:27:47.976Z,79.20
2019-02-19T20:30:17.498Z,80.12
2019-02-19T20:32:46.293Z,80.22
2019-02-19T20:35:15.010Z,82.57
2019-02-19T20:37:43.779Z,84.36
2019-02-19T20:40:13.008Z,85.37
2019-02-19T20:42:41.736Z,86.55
2019-02-19T20:45:14.466Z,87.62
2019-02-19T20:47:43.184Z,88.52
2019-02-19T20:50:15.513Z,89.21
2019-02-19T20:52:44.569Z,89.61
2019-02-19T20:55:13.300Z,89.94
2019-02-19T20:57:42.099Z,89.58
2019-02-19T21:00:16.884Z,89.69
2019-02-19T21:02:45.839Z,90.77
2019-02-19T21:05:14.645Z,91.11
2019-02-19T21:07:43.613Z,91.26
2019-02-19T21:10:17.375Z,90.49
2019-02-19T21:12:46.199Z,89.65
2019-02-19T21:15:15.154Z,90.69
2019-02-19T21:17:43.955Z,92.02
2019-02-19T21:20:13.275Z,92.44
2019-02-19T21:22:42.222Z,91.30
2019-02-19T21:25:12.036Z,90.47
2019-02-19T21:27:40.851Z,90.22
2019-02-19T21:30:17.183Z,90.50
2019-02-19T21:32:45.994Z,90.25
2019-02-19T21:35:14.831Z,90.60
2019-02-19T21:37:43.703Z,90.14
2019-02-19T21:40:13.720Z,89.42
2019-02-19T21:42:42.520Z,89.86
2019-02-19T21:45:13.206Z,90.14
2019-02-19T21:47:42.002Z,90.08
2019-02-19T21:50:16.186Z,90.05
2019-02-19T21:52:46.082Z,90.24
2019-02-19T21:55:14.921Z,90.21
2019-02-19T21:57:43.730Z,90.35
2019-02-19T22:00:21.299Z,90.37
2019-02-19T22:02:50.113Z,90.10
2019-02-19T22:05:18.923Z,89.65
2019-02-19T22:07:47.905Z,89.20
2019-02-19T22:10:17.885Z,88.95
2019-02-19T22:12:46.695Z,89.01
2019-02-19T22:15:19.546Z,88.79
2019-02-19T22:17:50.869Z,88.33
2019-02-19T22:20:41.865Z,87.91
2019-02-19T22:23:10.729Z,88.18
2019-02-19T22:25:40.564Z,89.02
2019-02-19T22:28:09.461Z,88.94
2019-02-19T22:30:38.267Z,88.89
2019-02-19T22:33:07.113Z,89.34
2019-02-19T22:35:37.080Z,89.77
2019-02-19T22:38:05.851Z,89.46
2019-02-19T22:40:34.673Z,89.94
2019-02-19T22:43:03.559Z,90.46
2019-02-19T22:45:32.377Z,90.22
2019-02-19T22:48:01.285Z,90.18
2019-02-19T22:50:30.227Z,90.48
2019-02-19T22:52:59.041Z,90.79
2019-02-19T22:55:32.393Z,90.97
2019-02-19T22:58:01.368Z,90.98
2019-02-19T23:00:49.338Z,90.77
2019-02-19T23:03:19.866Z,90.08
2019-02-19T23:05:48.665Z,89.18
2019-02-19T23:08:17.472Z,89.47
2019-02-19T23:10:46.417Z,90.18
2019-02-19T23:13:15.720Z,90.91
2019-02-19T23:15:44.532Z,91.10
2019-02-19T23:18:13.406Z,91.11
2019-02-19T23:20:42.221Z,91.43
2019-02-19T23:23:11.021Z,91.74
2019-02-19T23:25:39.982Z,92.57
2019-02-19T23:28:08.784Z,92.93
2019-02-19T23:30:37.591Z,92.24
2019-02-19T23:33:06.558Z,92.12
2019-02-19T23:35:36.929Z,92.25
2019-02-19T23:38:05.721Z,91.81
2019-02-19T23:40:34.789Z,90.33
2019-02-19T23:43:03.611Z,90.99
2019-02-19T23:45:32.414Z,91.57
2019-02-19T23:48:01.380Z,92.25
2019-02-19T23:50:30.182Z,93.05
2019-02-19T23:52:59.006Z,93.81
2019-02-19T23:55:27.895Z,94.08
2019-02-19T23:57:56.707Z,90.83
